Time;durP1;ratioP1;P1;durP2;ratioP2;P2;SDS_P1;SDS_P2;PMS_P1;PMS_P2;Temp;Humidity;BMP_temperature;BMP_pressure;BME280_temperature;BME280_humidity;BME280_pressure;Samples;Min_cycle;Max_cycle;Signal;HPM_P1;HPM_P2
2024/04/09 00:00:46;;;;;;;12.98;2.95;;;15.30;99.90;;;;;;5417832;26;20471;-76
2024/04/09 00:03:12;;;;;;;9.73;2.75;;;15.30;99.90;;;;;;5480045;26;20062;-76
2024/04/09 00:05:40;;;;;;;12.38;3.33;;;15.30;99.90;;;;;;5487395;26;19995;-75
2024/04/09 00:08:07;;;;;;;9.02;2.95;;;15.40;99.90;;;;;;5442769;26;20002;-77
2024/04/09 00:10:36;;;;;;;12.35;3.45;;;15.40;99.90;;;;;;5479427;26;20018;-76
2024/04/09 00:13:04;;;;;;;9.18;2.53;;;15.40;99.90;;;;;;5470146;26;19994;-78
2024/04/09 00:15:36;;;;;;;10.68;3.10;;;15.30;99.90;;;;;;5492122;26;19994;-76
2024/04/09 00:18:11;;;;;;;16.48;3.05;;;15.30;99.90;;;;;;5478026;26;20003;-75
2024/04/09 00:20:44;;;;;;;11.25;2.75;;;15.20;99.90;;;;;;5404385;26;20022;-76
2024/04/09 00:23:16;;;;;;;6.95;2.42;;;15.10;99.90;;;;;;5440298;26;19998;-74
2024/04/09 00:25:49;;;;;;;9.27;2.60;;;15.00;99.90;;;;;;5436483;26;20002;-74
2024/04/09 00:28:16;;;;;;;11.07;2.45;;;15.00;99.90;;;;;;5459474;26;20021;-74
2024/04/09 00:30:44;;;;;;;13.38;3.33;;;15.00;99.90;;;;;;5452413;26;20005;-74
2024/04/09 00:33:12;;;;;;;16.83;3.70;;;15.10;99.90;;;;;;5422509;26;20011;-74
2024/04/09 00:35:38;;;;;;;12.18;3.17;;;15.20;99.90;;;;;;5455135;26;20057;-74
2024/04/09 00:38:06;;;;;;;9.60;3.35;;;15.20;99.90;;;;;;5422089;26;20007;-75
2024/04/09 00:40:32;;;;;;;8.65;2.55;;;15.20;99.90;;;;;;5389296;26;20025;-75
2024/04/09 00:43:02;;;;;;;5.65;2.13;;;15.10;99.90;;;;;;5452403;26;20039;-75
2024/04/09 00:45:29;;;;;;;15.43;2.90;;;15.10;99.90;;;;;;5452534;26;20410;-75
2024/04/09 00:47:59;;;;;;;14.43;3.08;;;15.10;99.90;;;;;;5451619;26;19999;-76
2024/04/09 00:50:26;;;;;;;7.95;2.70;;;15.20;99.90;;;;;;5453457;26;20006;-74
2024/04/09 00:52:55;;;;;;;14.55;3.08;;;15.00;99.90;;;;;;5456646;26;20007;-75
2024/04/09 00:55:25;;;;;;;7.28;2.58;;;15.00;99.90;;;;;;5459647;26;20101;-75
2024/04/09 00:57:52;;;;;;;8.43;2.58;;;14.80;99.90;;;;;;5455089;26;20502;-76
2024/04/09 01:00:19;;;;;;;10.45;3.00;;;14.70;99.90;;;;;;5452614;26;20351;-74
2024/04/09 01:02:49;;;;;;;7.63;2.20;;;14.60;99.90;;;;;;5389250;26;20397;-75
2024/04/09 01:05:16;;;;;;;5.68;1.80;;;14.60;99.90;;;;;;5452473;26;20003;-75
2024/04/09 01:07:43;;;;;;;10.98;2.38;;;14.40;99.90;;;;;;5415582;26;20464;-76
2024/04/09 01:10:10;;;;;;;16.70;2.20;;;14.40;99.90;;;;;;5440537;26;20527;-75
2024/04/09 01:12:36;;;;;;;10.82;2.08;;;14.40;99.90;;;;;;5421524;26;20014;-76
2024/04/09 01:15:02;;;;;;;8.70;2.20;;;14.40;99.90;;;;;;5418510;26;19999;-74
2024/04/09 01:17:28;;;;;;;7.65;1.90;;;14.40;99.90;;;;;;5425115;26;19995;-74
2024/04/09 01:19:54;;;;;;;7.20;1.85;;;14.30;99.90;;;;;;5449539;26;19991;-74
2024/04/09 01:22:20;;;;;;;8.13;1.83;;;14.20;99.90;;;;;;5415077;26;20015;-74
2024/04/09 01:24:47;;;;;;;11.68;2.17;;;14.10;99.90;;;;;;5436024;26;20010;-74
2024/04/09 01:27:14;;;;;;;7.40;2.08;;;14.10;99.90;;;;;;5432063;26;20004;-75
2024/04/09 01:29:41;;;;;;;8.07;2.50;;;14.00;99.90;;;;;;5459001;26;20424;-76
2024/04/09 01:32:07;;;;;;;9.02;2.55;;;14.10;99.90;;;;;;5451822;26;19991;-75
2024/04/09 01:34:35;;;;;;;9.65;2.30;;;14.00;99.90;;;;;;5440942;26;20083;-74
2024/04/09 01:37:04;;;;;;;7.60;2.22;;;13.90;99.90;;;;;;5452250;26;20010;-76
2024/04/09 01:39:35;;;;;;;7.53;2.53;;;13.90;99.90;;;;;;5417977;26;20001;-77
2024/04/09 01:42:01;;;;;;;8.02;2.88;;;14.10;99.90;;;;;;5488421;26;20198;-77
2024/04/09 01:44:27;;;;;;;8.73;3.20;;;14.00;99.90;;;;;;5464358;26;19999;-77
2024/04/09 01:46:52;;;;;;;8.75;2.63;;;13.90;99.90;;;;;;5433918;26;20071;-78
2024/04/09 01:49:23;;;;;;;6.03;2.53;;;13.90;99.90;;;;;;5435629;26;20343;-76
2024/04/09 01:51:49;;;;;;;10.95;3.20;;;13.90;99.90;;;;;;5451880;26;20006;-75
2024/04/09 01:54:14;;;;;;;11.52;3.00;;;13.90;99.90;;;;;;5418068;26;20019;-75
2024/04/09 01:56:40;;;;;;;9.52;3.17;;;13.90;99.90;;;;;;5456310;26;19998;-75
2024/04/09 01:59:06;;;;;;;8.73;3.35;;;13.90;99.90;;;;;;5458019;26;19994;-76
2024/04/09 02:01:33;;;;;;;12.45;2.83;;;14.00;99.90;;;;;;5487012;26;20347;-75
2024/04/09 02:03:59;;;;;;;17.08;3.25;;;13.90;99.90;;;;;;5449025;26;20002;-77
2024/04/09 02:06:25;;;;;;;10.07;3.10;;;14.00;99.90;;;;;;5450159;26;20078;-75
2024/04/09 02:08:51;;;;;;;8.50;3.00;;;14.00;99.90;;;;;;5446887;26;20055;-76
2024/04/09 02:11:17;;;;;;;7.82;3.20;;;14.10;99.90;;;;;;5460885;26;20434;-76
2024/04/09 02:13:47;;;;;;;8.73;2.88;;;14.10;99.90;;;;;;5451597;26;20006;-75
2024/04/09 02:16:15;;;;;;;10.93;3.00;;;14.20;99.90;;;;;;5457110;26;19998;-76
2024/04/09 02:18:42;;;;;;;8.90;2.72;;;14.30;99.90;;;;;;5458727;26;20038;-75
2024/04/09 02:21:09;;;;;;;9.57;3.45;;;14.20;99.90;;;;;;5471541;26;20026;-75
2024/04/09 02:23:36;;;;;;;10.68;2.55;;;14.30;99.90;;;;;;5483497;26;20026;-76
2024/04/09 02:26:02;;;;;;;9.35;3.90;;;14.40;99.90;;;;;;5467286;26;19994;-75
2024/04/09 02:28:28;;;;;;;4.70;2.17;;;14.40;99.90;;;;;;5407027;26;20003;-75
2024/04/09 02:30:55;;;;;;;6.53;3.22;;;14.30;99.90;;;;;;5447252;26;20163;-74
2024/04/09 02:33:21;;;;;;;8.55;2.97;;;14.10;99.90;;;;;;5453815;26;20006;-75
2024/04/09 02:35:58;;;;;;;7.05;2.72;;;14.10;99.90;;;;;;5434270;26;20013;-76
2024/04/09 02:38:25;;;;;;;10.75;2.60;;;14.10;99.90;;;;;;5489186;26;20009;-76
2024/04/09 02:40:51;;;;;;;7.20;2.20;;;14.10;99.90;;;;;;5478310;26;20002;-76
2024/04/09 02:43:16;;;;;;;5.60;1.90;;;14.00;99.90;;;;;;5462561;26;19994;-77
2024/04/09 02:45:42;;;;;;;8.50;2.00;;;13.80;99.90;;;;;;5391701;26;20816;-78
2024/04/09 02:48:08;;;;;;;4.68;1.80;;;13.70;99.90;;;;;;5423718;26;19999;-77
2024/04/09 02:50:33;;;;;;;5.43;1.60;;;13.60;99.90;;;;;;5440868;26;20003;-76
2024/04/09 02:52:59;;;;;;;7.05;1.80;;;13.50;99.90;;;;;;5459428;26;20020;-75
2024/04/09 02:55:25;;;;;;;4.97;1.42;;;13.40;99.90;;;;;;5484778;26;19994;-74
2024/04/09 02:57:50;;;;;;;4.13;1.35;;;13.30;99.90;;;;;;5399141;26;20009;-76
2024/04/09 03:00:20;;;;;;;4.82;1.30;;;13.30;99.90;;;;;;5384402;26;20009;-79
2024/04/09 03:02:50;;;;;;;6.25;1.60;;;13.30;99.90;;;;;;5483513;26;20079;-77
2024/04/09 03:05:17;;;;;;;7.28;1.67;;;13.20;99.90;;;;;;5449620;26;19990;-76
2024/04/09 03:07:43;;;;;;;4.55;1.40;;;13.30;99.90;;;;;;5427622;26;20012;-76
2024/04/09 03:10:13;;;;;;;6.45;1.63;;;13.30;99.90;;;;;;5447277;26;20392;-78
2024/04/09 03:12:40;;;;;;;3.03;1.40;;;13.30;99.90;;;;;;5415337;26;20009;-78
2024/04/09 03:15:05;;;;;;;11.35;1.40;;;13.30;99.90;;;;;;5467492;26;20010;-75
2024/04/09 03:17:31;;;;;;;3.13;1.00;;;13.20;99.90;;;;;;5450495;26;20007;-76
2024/04/09 03:19:57;;;;;;;2.78;0.82;;;13.20;99.90;;;;;;5483438;26;20013;-77
2024/04/09 03:22:22;;;;;;;5.32;1.13;;;13.10;99.90;;;;;;5465267;26;20002;-76
2024/04/09 03:24:48;;;;;;;3.50;1.30;;;13.20;99.90;;;;;;5412557;26;19999;-76
2024/04/09 03:27:14;;;;;;;3.53;1.17;;;13.10;99.90;;;;;;5465061;26;20013;-79
2024/04/09 03:29:39;;;;;;;3.05;1.40;;;13.00;99.90;;;;;;5440587;26;20069;-77
2024/04/09 03:32:05;;;;;;;3.63;1.65;;;12.90;99.90;;;;;;5487182;26;20003;-78
2024/04/09 03:34:33;;;;;;;5.60;1.65;;;12.70;99.90;;;;;;5426150;26;19990;-77
2024/04/09 03:37:00;;;;;;;7.90;1.75;;;12.60;99.90;;;;;;5427450;26;19998;-77
2024/04/09 03:39:25;;;;;;;6.80;1.70;;;12.30;99.90;;;;;;5456480;26;20087;-76
2024/04/09 03:41:51;;;;;;;9.07;2.08;;;12.20;99.90;;;;;;5479450;26;20005;-78
2024/04/09 03:44:17;;;;;;;8.88;1.50;;;12.00;99.90;;;;;;5453961;26;19994;-77
2024/04/09 03:46:42;;;;;;;4.82;1.02;;;11.90;99.90;;;;;;5471148;26;19994;-76
2024/04/09 03:49:08;;;;;;;3.80;1.08;;;11.80;99.90;;;;;;5493144;26;19998;-76
2024/04/09 03:51:34;;;;;;;5.93;0.93;;;11.80;99.90;;;;;;5472049;26;20010;-79
2024/04/09 03:53:59;;;;;;;4.72;1.40;;;11.80;99.90;;;;;;5395109;26;19995;-76
2024/04/09 03:56:25;;;;;;;6.72;1.92;;;11.80;99.90;;;;;;5463326;26;20014;-76
2024/04/09 03:58:51;;;;;;;4.43;1.33;;;11.70;99.90;;;;;;5475841;26;20009;-76
2024/04/09 04:01:17;;;;;;;7.78;1.77;;;11.70;99.90;;;;;;5465421;26;20011;-79
2024/04/09 04:03:48;;;;;;;10.25;1.42;;;11.70;99.90;;;;;;5466429;26;20446;-79
2024/04/09 04:06:14;;;;;;;7.88;1.20;;;11.60;99.90;;;;;;5497426;26;20012;-77
2024/04/09 04:08:42;;;;;;;5.93;1.10;;;11.60;99.90;;;;;;5453724;26;20009;-76
2024/04/09 04:11:09;;;;;;;7.10;1.50;;;11.60;99.90;;;;;;5456912;26;20007;-79
2024/04/09 04:13:36;;;;;;;5.65;1.48;;;11.70;99.90;;;;;;5489863;26;20392;-77
2024/04/09 04:16:07;;;;;;;9.00;2.03;;;11.70;99.90;;;;;;5452158;26;20002;-79
2024/04/09 04:18:45;;;;;;;6.75;1.38;;;11.70;99.90;;;;;;5456114;26;20009;-76
2024/04/09 04:21:18;;;;;;;13.23;2.13;;;11.70;99.90;;;;;;5451623;26;19998;-78
2024/04/09 04:23:51;;;;;;;10.23;1.63;;;11.60;99.90;;;;;;5466778;26;20016;-75
2024/04/09 04:26:27;;;;;;;7.85;1.20;;;11.50;99.90;;;;;;5450054;26;19998;-78
2024/04/09 04:28:54;;;;;;;6.97;1.15;;;11.40;99.90;;;;;;5485344;26;20007;-76
2024/04/09 04:31:21;;;;;;;5.45;1.27;;;11.40;99.90;;;;;;5468416;26;20022;-75
2024/04/09 04:33:49;;;;;;;11.80;1.73;;;11.30;99.90;;;;;;5502590;26;20002;-79
2024/04/09 04:36:16;;;;;;;11.02;2.05;;;11.20;99.90;;;;;;5491223;26;20010;-79
2024/04/09 04:38:42;;;;;;;7.50;1.38;;;11.20;99.90;;;;;;5478552;26;20026;-78
2024/04/09 04:41:08;;;;;;;8.57;1.95;;;11.20;99.90;;;;;;5441554;26;20009;-76
2024/04/09 04:43:36;;;;;;;9.73;1.67;;;11.20;99.90;;;;;;5421940;26;20338;-76
2024/04/09 04:46:04;;;;;;;12.35;1.48;;;11.30;99.90;;;;;;5461453;26;20078;-77
2024/04/09 04:48:30;;;;;;;3.97;1.13;;;11.30;99.90;;;;;;5462930;26;20003;-77
2024/04/09 04:50:56;;;;;;;9.15;1.88;;;11.30;99.90;;;;;;5465534;26;20002;-77
2024/04/09 04:53:23;;;;;;;7.10;1.73;;;11.30;99.90;;;;;;5467189;26;20017;-77
2024/04/09 04:55:49;;;;;;;7.97;1.58;;;11.30;99.90;;;;;;5490727;26;20036;-78
2024/04/09 04:58:15;;;;;;;11.25;1.48;;;11.40;99.90;;;;;;5490653;26;20013;-78
2024/04/09 05:00:41;;;;;;;13.30;2.00;;;11.50;99.90;;;;;;5454645;26;20026;-78
2024/04/09 05:03:07;;;;;;;14.43;1.58;;;11.50;99.90;;;;;;5463757;26;19998;-78
2024/04/09 05:05:33;;;;;;;6.03;1.10;;;11.60;99.90;;;;;;5457610;26;19995;-77
2024/04/09 05:08:00;;;;;;;11.20;1.95;;;11.50;99.90;;;;;;5427644;26;20415;-79
2024/04/09 05:10:25;;;;;;;10.02;1.55;;;11.40;99.90;;;;;;5421755;26;20006;-76
2024/04/09 05:12:53;;;;;;;11.85;2.00;;;11.30;99.90;;;;;;5466410;26;19998;-77
2024/04/09 05:15:19;;;;;;;10.18;1.75;;;11.30;99.90;;;;;;5442038;26;20013;-77
2024/04/09 05:17:46;;;;;;;11.60;2.10;;;11.30;99.90;;;;;;5446376;26;20010;-77
2024/04/09 05:20:14;;;;;;;7.70;1.10;;;11.20;99.90;;;;;;5489453;26;20017;-79
2024/04/09 05:22:47;;;;;;;9.88;2.08;;;11.20;99.90;;;;;;5459226;26;20030;-78
2024/04/09 05:25:14;;;;;;;8.98;1.25;;;11.10;99.90;;;;;;5432726;26;20014;-77
2024/04/09 05:27:40;;;;;;;14.60;1.65;;;11.00;99.90;;;;;;5476464;26;19998;-77
2024/04/09 05:30:07;;;;;;;10.38;1.70;;;11.00;99.90;;;;;;5473697;26;20010;-76
2024/04/09 05:32:38;;;;;;;10.10;1.23;;;10.90;99.90;;;;;;5456990;26;20021;-77
2024/04/09 05:35:07;;;;;;;9.80;1.20;;;10.90;99.90;;;;;;5440089;26;20044;-75
2024/04/09 05:37:33;;;;;;;9.75;1.13;;;10.80;99.90;;;;;;5434557;26;19998;-78
2024/04/09 05:39:58;;;;;;;8.52;1.50;;;10.80;99.90;;;;;;5450095;26;20013;-76
2024/04/09 05:42:24;;;;;;;9.00;1.67;;;10.80;99.90;;;;;;5425946;26;20446;-77
2024/04/09 05:44:50;;;;;;;8.55;1.60;;;10.80;99.90;;;;;;5476853;26;20004;-79
2024/04/09 05:47:17;;;;;;;11.73;1.60;;;10.90;99.90;;;;;;5467852;26;19995;-78
2024/04/09 05:49:44;;;;;;;15.77;2.40;;;10.80;99.90;;;;;;5473130;26;20002;-77
2024/04/09 05:52:10;;;;;;;11.10;3.05;;;10.80;99.90;;;;;;5458550;26;20004;-78
2024/04/09 05:54:43;;;;;;;10.63;1.50;;;10.80;99.90;;;;;;5458315;26;20006;-79
2024/04/09 05:57:09;;;;;;;10.95;1.80;;;10.90;99.90;;;;;;5474748;26;20346;-76
2024/04/09 05:59:35;;;;;;;7.75;1.17;;;10.90;99.90;;;;;;5454942;26;20009;-77
2024/04/09 06:02:01;;;;;;;10.55;1.73;;;10.90;99.90;;;;;;5451076;26;20010;-77
2024/04/09 06:04:26;;;;;;;10.20;1.83;;;10.90;99.90;;;;;;5450116;26;20026;-75
2024/04/09 06:06:53;;;;;;;19.00;1.77;;;10.90;99.90;;;;;;5390748;26;19998;-78
2024/04/09 06:09:19;;;;;;;13.40;2.13;;;10.90;99.90;;;;;;5457069;26;20003;-78
2024/04/09 06:11:45;;;;;;;6.95;1.55;;;10.90;99.90;;;;;;5447748;26;20016;-79
2024/04/09 06:14:11;;;;;;;7.80;1.70;;;10.90;99.90;;;;;;5458203;26;19994;-79
2024/04/09 06:16:36;;;;;;;10.30;2.00;;;10.70;99.90;;;;;;5432547;26;20010;-77
2024/04/09 06:19:02;;;;;;;19.05;2.55;;;10.70;99.90;;;;;;5431922;26;20005;-77
2024/04/09 06:21:28;;;;;;;13.93;1.70;;;10.60;99.90;;;;;;5482323;26;20009;-79
2024/04/09 06:23:53;;;;;;;9.18;1.45;;;10.50;99.90;;;;;;5489005;26;20038;-79
2024/04/09 06:26:20;;;;;;;12.95;2.05;;;10.40;99.90;;;;;;5404833;26;20327;-78
2024/04/09 06:28:46;;;;;;;12.38;1.48;;;10.40;99.90;;;;;;5488652;26;20019;-78
2024/04/09 06:31:12;;;;;;;19.67;2.08;;;10.40;99.90;;;;;;5438660;26;19998;-76
2024/04/09 06:33:37;;;;;;;6.15;1.50;;;10.30;99.90;;;;;;5427299;26;20514;-77
2024/04/09 06:36:03;;;;;;;10.80;1.83;;;10.30;99.90;;;;;;5393563;26;20006;-79
2024/04/09 06:38:31;;;;;;;10.60;1.85;;;10.40;99.90;;;;;;5460980;26;19998;-76
2024/04/09 06:40:56;;;;;;;13.57;2.15;;;10.40;99.90;;;;;;5446649;26;20009;-77
2024/04/09 06:43:22;;;;;;;9.27;1.15;;;10.40;99.90;;;;;;5435682;26;19998;-77
2024/04/09 06:45:48;;;;;;;4.93;1.10;;;10.40;99.90;;;;;;5425874;26;20003;-77
2024/04/09 06:48:14;;;;;;;6.90;1.20;;;10.40;99.90;;;;;;5399760;26;20320;-77
2024/04/09 06:50:41;;;;;;;9.70;1.55;;;10.40;99.90;;;;;;5434375;26;20633;-78
2024/04/09 06:53:07;;;;;;;10.25;1.85;;;10.40;99.90;;;;;;5446455;26;20074;-80
2024/04/09 06:55:32;;;;;;;13.50;2.15;;;10.50;99.90;;;;;;5487541;26;20014;-78
2024/04/09 06:57:58;;;;;;;8.38;1.58;;;10.50;99.90;;;;;;5443752;26;19998;-78
2024/04/09 07:00:24;;;;;;;10.25;1.40;;;10.50;99.90;;;;;;5466119;26;20077;-80
2024/04/09 07:02:49;;;;;;;7.85;1.30;;;10.40;99.90;;;;;;5443986;26;20002;-77
2024/04/09 07:05:15;;;;;;;9.55;2.15;;;10.50;99.90;;;;;;5479418;26;20339;-78
2024/04/09 07:07:41;;;;;;;12.77;1.67;;;10.40;99.90;;;;;;5456840;26;20346;-79
2024/04/09 07:10:07;;;;;;;8.50;1.27;;;10.40;99.90;;;;;;5465393;26;20013;-79
2024/04/09 07:12:33;;;;;;;10.48;1.85;;;10.40;99.90;;;;;;5493534;26;20338;-75
2024/04/09 07:15:03;;;;;;;9.68;2.25;;;10.40;99.90;;;;;;5443124;26;20031;-80
2024/04/09 07:17:29;;;;;;;11.20;1.45;;;10.40;99.90;;;;;;5423557;26;20083;-79
2024/04/09 07:19:58;;;;;;;9.55;1.60;;;10.50;99.90;;;;;;5408489;26;20054;-79
2024/04/09 07:22:24;;;;;;;11.27;1.63;;;10.60;99.90;;;;;;5447021;26;20791;-75
2024/04/09 07:24:50;;;;;;;10.00;1.55;;;10.60;99.90;;;;;;5449952;26;20011;-76
2024/04/09 07:27:16;;;;;;;7.97;1.95;;;10.60;99.90;;;;;;5449597;26;20001;-79
2024/04/09 07:29:42;;;;;;;13.27;2.40;;;10.70;99.90;;;;;;5489402;26;20032;-77
2024/04/09 07:32:08;;;;;;;5.38;1.42;;;10.60;99.90;;;;;;5450473;26;20385;-79
2024/04/09 07:34:35;;;;;;;7.10;1.55;;;10.70;99.90;;;;;;5414959;26;20043;-77
2024/04/09 07:37:01;;;;;;;10.65;1.40;;;10.60;99.90;;;;;;5452022;26;20002;-78
2024/04/09 07:39:26;;;;;;;8.65;1.60;;;10.70;99.90;;;;;;5449472;26;20013;-78
2024/04/09 07:41:52;;;;;;;13.52;1.65;;;10.80;99.90;;;;;;5463316;26;20447;-78
2024/04/09 07:44:18;;;;;;;8.63;1.40;;;10.90;99.90;;;;;;5425468;26;20013;-78
2024/04/09 07:46:48;;;;;;;7.35;1.10;;;10.80;99.90;;;;;;5496097;26;20457;-79
2024/04/09 07:49:15;;;;;;;10.02;1.50;;;10.90;99.90;;;;;;5470238;26;20021;-76
2024/04/09 07:51:41;;;;;;;8.57;1.20;;;10.90;99.90;;;;;;5480389;26;20078;-77
2024/04/09 07:54:07;;;;;;;10.35;1.70;;;10.90;99.90;;;;;;5473336;26;20422;-78
2024/04/09 07:56:33;;;;;;;13.10;1.75;;;11.00;99.90;;;;;;5487648;26;20009;-79
2024/04/09 07:58:59;;;;;;;7.38;1.15;;;11.10;99.90;;;;;;5487393;26;20002;-77
2024/04/09 08:01:25;;;;;;;8.13;1.00;;;11.20;99.90;;;;;;5477609;26;20009;-78
2024/04/09 08:03:51;;;;;;;11.48;1.65;;;11.20;99.90;;;;;;5430954;26;19999;-79
2024/04/09 08:06:16;;;;;;;17.50;1.30;;;11.10;99.90;;;;;;5488658;26;20005;-78
2024/04/09 08:08:42;;;;;;;7.88;1.80;;;11.20;99.90;;;;;;5433425;26;20031;-79
2024/04/09 08:11:08;;;;;;;7.35;0.90;;;11.30;99.90;;;;;;5486280;26;20431;-80
2024/04/09 08:13:34;;;;;;;9.75;1.45;;;11.30;99.90;;;;;;5474429;26;20384;-77
2024/04/09 08:16:00;;;;;;;9.10;1.77;;;11.50;99.90;;;;;;5454731;26;19999;-77
2024/04/09 08:18:26;;;;;;;9.63;1.27;;;11.60;99.90;;;;;;5437407;26;19999;-79
2024/04/09 08:20:52;;;;;;;6.32;1.45;;;11.60;99.90;;;;;;5480458;26;20010;-80
2024/04/09 08:23:17;;;;;;;7.90;1.30;;;11.60;99.90;;;;;;5485896;26;20009;-81
2024/04/09 08:25:44;;;;;;;7.03;1.80;;;11.50;99.90;;;;;;5454294;26;20019;-79
2024/04/09 08:28:10;;;;;;;9.38;1.83;;;11.40;99.90;;;;;;5444205;26;20002;-77
2024/04/09 08:30:37;;;;;;;8.75;1.55;;;11.50;99.90;;;;;;5455371;26;20006;-78
2024/04/09 08:33:05;;;;;;;11.02;1.63;;;11.40;99.90;;;;;;5455089;26;20031;-78
2024/04/09 08:35:31;;;;;;;9.38;1.55;;;11.40;99.90;;;;;;5483495;26;20006;-79
2024/04/09 08:37:56;;;;;;;6.55;1.50;;;11.40;99.90;;;;;;5470329;26;20014;-76
2024/04/09 08:40:22;;;;;;;6.90;1.30;;;11.20;99.90;;;;;;5423102;26;20331;-77
2024/04/09 08:42:53;;;;;;;10.05;1.30;;;11.20;99.90;;;;;;5482255;26;20016;-81
2024/04/09 08:45:19;;;;;;;10.43;1.35;;;11.10;99.90;;;;;;5465041;26;20079;-79
2024/04/09 08:47:45;;;;;;;17.40;2.22;;;11.00;99.90;;;;;;5453325;26;20360;-79
2024/04/09 08:50:14;;;;;;;7.85;1.50;;;10.90;99.90;;;;;;5473052;26;20010;-78
2024/04/09 08:52:40;;;;;;;6.18;1.30;;;10.90;99.90;;;;;;5460982;26;20050;-79
2024/04/09 08:55:10;;;;;;;7.28;1.35;;;10.80;99.90;;;;;;5489056;26;20074;-77
2024/04/09 08:57:36;;;;;;;6.90;2.15;;;10.70;99.90;;;;;;5466847;26;20014;-77
2024/04/09 09:00:04;;;;;;;12.32;2.00;;;10.80;99.90;;;;;;5468538;26;20013;-78
2024/04/09 09:02:30;;;;;;;8.00;1.58;;;10.90;99.90;;;;;;5438514;26;20458;-80
2024/04/09 09:04:56;;;;;;;11.93;1.90;;;11.00;99.90;;;;;;5480075;26;19998;-77
2024/04/09 09:07:23;;;;;;;6.95;1.20;;;11.20;99.90;;;;;;5490013;26;19994;-79
2024/04/09 09:09:50;;;;;;;15.43;1.80;;;11.60;99.90;;;;;;5441253;26;20001;-78
2024/04/09 09:12:16;;;;;;;8.80;1.13;;;11.80;99.90;;;;;;5491107;26;20004;-81
2024/04/09 09:14:53;;;;;;;11.43;1.55;;;12.10;99.90;;;;;;5462759;26;20324;-77
2024/04/09 09:17:18;;;;;;;8.15;1.75;;;12.30;99.90;;;;;;5491091;26;19998;-80
2024/04/09 09:19:44;;;;;;;11.60;1.73;;;12.40;99.90;;;;;;5423149;26;20017;-81
2024/04/09 09:22:12;;;;;;;7.15;1.25;;;12.50;99.90;;;;;;5479879;26;20328;-80
2024/04/09 09:24:38;;;;;;;10.20;1.50;;;12.50;99.90;;;;;;5478832;26;20010;-76
2024/04/09 09:27:08;;;;;;;8.40;1.40;;;12.60;99.90;;;;;;5491267;26;20017;-77
2024/04/09 09:29:34;;;;;;;9.15;1.63;;;12.70;99.90;;;;;;5470561;26;19997;-77
2024/04/09 09:32:01;;;;;;;10.65;1.58;;;12.90;99.90;;;;;;5489207;26;20013;-77
2024/04/09 09:34:39;;;;;;;6.75;1.45;;;13.30;99.90;;;;;;5485199;26;19998;-76
2024/04/09 09:37:11;;;;;;;7.45;1.40;;;13.60;99.90;;;;;;5443275;26;20001;-76
2024/04/09 09:39:41;;;;;;;6.55;1.42;;;13.50;99.90;;;;;;5492318;26;20446;-79
2024/04/09 09:42:12;;;;;;;8.02;1.98;;;13.40;99.90;;;;;;5464994;26;20013;-75
2024/04/09 09:44:39;;;;;;;4.40;1.10;;;13.50;99.90;;;;;;5493280;26;20047;-80
2024/04/09 09:47:06;;;;;;;3.80;1.00;;;13.90;99.90;;;;;;5492221;26;20009;-77
2024/04/09 09:49:33;;;;;;;5.80;1.38;;;14.00;99.90;;;;;;5501217;26;20177;-76
2024/04/09 09:52:00;;;;;;;8.52;0.98;;;14.60;99.90;;;;;;5500266;26;20016;-79
2024/04/09 09:54:27;;;;;;;6.00;1.08;;;15.10;99.90;;;;;;5423447;26;20017;-77
2024/04/09 09:57:01;;;;;;;10.45;1.67;;;15.20;99.90;;;;;;5494548;26;20013;-81
2024/04/09 09:59:33;;;;;;;11.70;1.88;;;14.80;99.90;;;;;;5491792;26;20125;-79
2024/04/09 10:02:02;;;;;;;10.95;1.75;;;14.70;99.90;;;;;;5446868;26;20015;-77
2024/04/09 10:04:28;;;;;;;3.53;1.00;;;14.30;99.90;;;;;;5446485;26;20003;-79
2024/04/09 10:07:04;;;;;;;4.63;1.23;;;13.90;99.90;;;;;;5452814;26;20079;-78
2024/04/09 10:09:42;;;;;;;6.45;1.20;;;13.50;99.90;;;;;;5438426;26;20043;-78
2024/04/09 10:12:18;;;;;;;5.38;1.95;;;13.10;99.90;;;;;;5465911;26;20017;-78
2024/04/09 10:14:44;;;;;;;13.43;2.28;;;12.80;99.90;;;;;;5477768;26;19998;-77
2024/04/09 10:17:13;;;;;;;9.38;1.20;;;12.80;99.90;;;;;;5491292;26;20002;-80
2024/04/09 10:19:41;;;;;;;6.70;1.73;;;13.00;99.90;;;;;;5460031;26;20006;-78
2024/04/09 10:22:06;;;;;;;10.02;1.45;;;12.90;99.90;;;;;;5481415;26;19998;-78
2024/04/09 10:24:35;;;;;;;9.18;1.40;;;12.80;99.90;;;;;;5491576;26;20013;-77
2024/04/09 10:27:01;;;;;;;12.00;1.75;;;12.60;99.90;;;;;;5454599;26;20010;-76
2024/04/09 10:29:29;;;;;;;7.68;1.00;;;12.50;99.90;;;;;;5446468;26;20480;-79
2024/04/09 10:31:56;;;;;;;6.15;1.30;;;12.50;99.90;;;;;;5463641;26;20669;-77
2024/04/09 10:34:26;;;;;;;5.95;1.10;;;12.40;99.90;;;;;;5489446;26;20002;-80
2024/04/09 10:36:56;;;;;;;12.80;1.65;;;12.40;99.90;;;;;;5441571;26;20010;-77
2024/04/09 10:39:24;;;;;;;8.25;1.50;;;12.40;99.90;;;;;;5456478;26;20006;-78
2024/04/09 10:41:56;;;;;;;6.07;1.30;;;12.70;99.90;;;;;;5430320;26;20013;-78
2024/04/09 10:44:26;;;;;;;9.82;1.73;;;12.80;99.90;;;;;;5459807;26;20070;-77
2024/04/09 10:46:52;;;;;;;6.13;1.25;;;13.00;99.90;;;;;;5447283;26;20013;-77
2024/04/09 10:49:18;;;;;;;8.18;1.95;;;12.90;99.90;;;;;;5444202;26;20017;-76
2024/04/09 10:51:48;;;;;;;6.53;1.17;;;12.80;99.90;;;;;;5457658;26;20008;-77
2024/04/09 10:54:15;;;;;;;8.73;1.40;;;12.60;99.90;;;;;;5488877;26;20005;-77
2024/04/09 10:56:41;;;;;;;10.02;1.70;;;12.50;99.90;;;;;;5457473;26;20013;-77
2024/04/09 10:59:21;;;;;;;11.82;1.55;;;12.40;99.90;;;;;;5468698;26;20443;-80
2024/04/09 11:01:47;;;;;;;8.00;1.30;;;12.40;99.90;;;;;;5431847;26;19999;-80
2024/04/09 11:04:13;;;;;;;8.18;1.40;;;12.60;99.90;;;;;;5478114;26;20002;-80
2024/04/09 11:06:41;;;;;;;11.73;1.50;;;12.50;99.90;;;;;;5441015;26;20018;-79
2024/04/09 11:09:08;;;;;;;11.98;2.13;;;12.40;99.90;;;;;;5498846;26;20030;-79
2024/04/09 11:11:34;;;;;;;8.77;1.80;;;12.60;99.90;;;;;;5491111;26;20002;-78
2024/04/09 11:14:03;;;;;;;7.82;1.23;;;12.90;99.90;;;;;;5440637;26;19999;-78
2024/04/09 11:16:29;;;;;;;9.95;1.08;;;13.00;99.90;;;;;;5447380;26;19994;-77
2024/04/09 11:19:01;;;;;;;6.82;1.27;;;13.00;99.90;;;;;;5434195;26;20378;-80
2024/04/09 11:21:28;;;;;;;7.40;1.30;;;12.90;99.90;;;;;;5489260;26;20047;-80
2024/04/09 11:23:55;;;;;;;5.05;0.90;;;12.80;99.90;;;;;;5454539;26;20604;-78
2024/04/09 11:26:21;;;;;;;3.58;0.82;;;12.70;99.90;;;;;;5487758;26;20447;-78
2024/04/09 11:28:50;;;;;;;4.88;1.00;;;12.80;99.90;;;;;;5490149;26;20013;-77
2024/04/09 11:31:20;;;;;;;5.20;1.10;;;12.90;99.90;;;;;;5488337;26;20013;-76
2024/04/09 11:33:46;;;;;;;8.32;0.90;;;13.00;99.90;;;;;;5446563;26;20037;-77
2024/04/09 11:36:14;;;;;;;5.30;1.38;;;13.30;99.90;;;;;;5447199;26;20002;-76
2024/04/09 11:38:40;;;;;;;5.43;1.20;;;13.30;99.90;;;;;;5422756;26;19999;-77
2024/04/09 11:41:07;;;;;;;16.33;1.13;;;13.20;99.90;;;;;;5451424;26;20018;-79
2024/04/09 11:43:34;;;;;;;6.55;1.52;;;13.00;99.90;;;;;;5436956;26;20002;-78
2024/04/09 11:46:01;;;;;;;3.05;0.90;;;12.90;99.90;;;;;;5454111;26;20336;-78
2024/04/09 11:48:27;;;;;;;8.07;1.13;;;12.90;99.90;;;;;;5406417;26;20003;-77
2024/04/09 11:50:53;;;;;;;6.13;1.27;;;13.10;99.90;;;;;;5461127;26;19998;-78
2024/04/09 11:53:18;;;;;;;7.68;0.80;;;13.20;99.90;;;;;;5451268;26;20040;-78
2024/04/09 11:55:44;;;;;;;4.28;0.95;;;13.20;99.90;;;;;;5450449;26;20003;-78
2024/04/09 11:58:11;;;;;;;5.88;0.70;;;13.00;99.90;;;;;;5444397;26;20015;-80
2024/04/09 12:00:37;;;;;;;4.63;0.60;;;13.10;99.90;;;;;;5449620;26;20003;-75
2024/04/09 12:03:03;;;;;;;7.72;1.00;;;12.80;99.90;;;;;;5435098;26;20018;-80
2024/04/09 12:05:29;;;;;;;4.07;0.90;;;12.80;99.90;;;;;;5388281;26;20014;-79
2024/04/09 12:07:55;;;;;;;2.22;0.73;;;12.80;99.90;;;;;;5420371;26;20015;-77
2024/04/09 12:10:22;;;;;;;4.20;1.00;;;12.80;99.90;;;;;;5422571;26;20102;-76
2024/04/09 12:12:51;;;;;;;3.40;0.80;;;13.90;99.90;;;;;;5459386;26;20131;-78
2024/04/09 12:15:18;;;;;;;8.73;1.02;;;14.80;99.90;;;;;;5422050;26;20003;-76
2024/04/09 12:17:44;;;;;;;5.63;1.17;;;15.20;99.90;;;;;;5389945;26;20416;-78
2024/04/09 12:20:10;;;;;;;11.18;1.35;;;15.10;99.90;;;;;;5450192;26;20073;-76
2024/04/09 12:22:35;;;;;;;12.52;1.55;;;15.00;99.90;;;;;;5418681;26;20336;-76
2024/04/09 12:25:02;;;;;;;8.23;1.40;;;15.30;99.90;;;;;;5418540;26;20011;-78
2024/04/09 12:27:27;;;;;;;8.23;1.23;;;17.50;99.90;;;;;;5457874;26;20450;-77
2024/04/09 12:29:53;;;;;;;6.47;1.70;;;18.30;99.90;;;;;;5460320;26;19998;-78
2024/04/09 12:32:19;;;;;;;2.88;1.10;;;17.80;99.90;;;;;;5467280;26;20009;-80
2024/04/09 12:34:45;;;;;;;7.82;1.40;;;18.70;99.30;;;;;;5465282;26;20014;-78
2024/04/09 12:37:12;;;;;;;4.88;1.13;;;18.10;99.60;;;;;;5446965;26;20010;-79
2024/04/09 12:39:38;;;;;;;6.85;1.23;;;17.20;99.90;;;;;;5470732;26;20055;-78
2024/04/09 12:42:04;;;;;;;5.97;1.20;;;16.00;99.90;;;;;;5455188;26;20484;-78